Terminal Aerodrome Forecast
Issued by NWS

Home | Current Version | Previous Version | Text Only | Print | Product List | Glossary On
Versions: 1 2 3 4 5 6 7 8 9 10 11 12 13 14 15 16 17 18
743
FTUS44 KBMX 240539
TAFANB
TAF
KANB 240539Z 2406/2506 20007KT 3SM SHRA FEW008 BKN025
     FM240700 20007KT 3SM SHRA BKN008
     FM241500 24008KT P6SM BKN015
     FM241800 28007KT P6SM BKN035 PROB30 2419/2423 4SM TSRA BKN030CB
     FM242300 30007KT P6SM BKN120=

USA.gov is the U.S. government's official web portal to all federal, state and local government web resources and services.